Time;durP1;ratioP1;P1;durP2;ratioP2;P2;SDS_P1;SDS_P2;PMS_P1;PMS_P2;Temp;Humidity;BMP_temperature;BMP_pressure;BME280_temperature;BME280_humidity;BME280_pressure;Samples;Min_cycle;Max_cycle;Signal;HPM_P1;HPM_P2
2022/01/07 00:01:32;;;;;;;27.52;12.25;;;;;;;-3.79;100.00;98872.94;10327277;28;20077;-79
2022/01/07 00:06:34;;;;;;;22.30;11.23;;;;;;;-3.67;100.00;98867.75;10306477;28;20047;-79
2022/01/07 00:11:35;;;;;;;22.88;11.38;;;;;;;-3.83;100.00;98874.38;10281418;28;20059;-79
2022/01/07 00:16:37;;;;;;;23.40;12.02;;;;;;;-3.91;100.00;98864.16;10281385;28;20398;-81
2022/01/07 00:21:41;;;;;;;18.95;10.63;;;;;;;-3.93;100.00;98868.00;10300857;28;20054;-80
2022/01/07 00:26:42;;;;;;;;;;;;;;;-3.98;100.00;98860.00;10298318;28;20083;-81
2022/01/07 00:31:48;;;;;;;21.00;10.48;;;;;;;-3.98;100.00;98844.25;10285703;28;20007;-80
2022/01/07 00:36:49;;;;;;;19.10;10.50;;;;;;;-3.95;100.00;98835.94;10280755;28;20392;-80
2022/01/07 00:41:51;;;;;;;20.27;10.55;;;;;;;-3.98;100.00;98845.06;10297119;28;20074;-80
2022/01/07 00:46:52;;;;;;;19.48;9.82;;;;;;;-4.02;100.00;98830.78;10295330;28;20063;-80
2022/01/07 00:51:53;;;;;;;19.33;10.73;;;;;;;-4.04;100.00;98824.94;10262496;28;20054;-79
2022/01/07 00:56:54;;;;;;;20.85;10.88;;;;;;;-3.98;100.00;98823.28;10300786;28;20637;-79
2022/01/07 01:01:56;;;;;;;20.20;11.00;;;;;;;-3.96;100.00;98827.28;10291361;28;20047;-80
2022/01/07 01:06:57;;;;;;;20.23;10.75;;;;;;;-4.08;100.00;98829.00;10263320;28;20055;-79
2022/01/07 01:11:57;;;;;;;23.85;10.50;;;;;;;-4.16;100.00;98837.16;10277658;28;20106;-80
2022/01/07 01:17:00;;;;;;;21.90;10.35;;;;;;;-4.14;100.00;98846.38;10272482;28;20058;-80
2022/01/07 01:22:01;;;;;;;18.77;9.88;;;;;;;-4.19;100.00;98827.09;10243472;28;20066;-81
2022/01/07 01:27:36;;;;;;;20.70;11.18;;;;;;;-4.26;100.00;98821.09;10263725;28;20820;-80
2022/01/07 01:32:39;;;;;;;;;;;;;;;-4.34;100.00;98825.59;10291404;28;20058;-79
2022/01/07 01:37:42;;;;;;;17.83;10.33;;;;;;;-4.24;100.00;98812.00;10266218;28;20002;-79
2022/01/07 01:42:48;;;;;;;17.98;10.43;;;;;;;-4.31;100.00;98809.44;10292431;28;20062;-80
2022/01/07 01:47:49;;;;;;;20.30;9.95;;;;;;;-4.45;100.00;98812.38;10226222;28;20054;-78
2022/01/07 01:52:55;;;;;;;20.23;9.82;;;;;;;-4.38;100.00;98806.06;10265938;28;20042;-79
2022/01/07 01:57:58;;;;;;;21.63;10.23;;;;;;;-4.36;100.00;98792.75;10236115;28;20157;-82
2022/01/07 02:02:59;;;;;;;25.25;10.70;;;;;;;-4.32;100.00;98796.53;10250717;28;20482;-78
2022/01/07 02:08:00;;;;;;;18.75;9.75;;;;;;;-4.28;100.00;98792.50;10266524;28;20058;-80
2022/01/07 02:13:02;;;;;;;20.48;9.88;;;;;;;-4.21;100.00;98787.19;10280418;28;20533;-79
2022/01/07 02:18:04;;;;;;;24.40;11.23;;;;;;;-4.14;100.00;98777.44;10272447;28;20133;-78
2022/01/07 02:23:06;;;;;;;20.27;10.50;;;;;;;-4.17;100.00;98781.31;10281750;28;20061;-79
2022/01/07 02:28:07;;;;;;;16.55;9.50;;;;;;;-4.36;100.00;98779.66;10238397;28;20079;-79
2022/01/07 02:33:19;;;;;;;19.40;9.63;;;;;;;-4.38;100.00;98779.88;10280291;28;20055;-80
2022/01/07 02:38:22;;;;;;;20.70;10.15;;;;;;;-4.28;100.00;98761.06;10301765;28;20046;-80
2022/01/07 02:43:24;;;;;;;18.38;10.27;;;;;;;-4.25;100.00;98765.06;10282039;28;20055;-80
2022/01/07 02:48:27;;;;;;;;;;;;;;;-4.23;100.00;98770.88;10292065;28;20207;-81
2022/01/07 02:53:31;;;;;;;17.10;10.27;;;;;;;-4.39;100.00;98770.41;10302104;28;19922;-81
2022/01/07 02:58:33;;;;;;;19.33;10.18;;;;;;;-4.45;100.00;98763.41;10286146;28;20126;-79
2022/01/07 03:03:34;;;;;;;20.20;9.75;;;;;;;-4.44;100.00;98766.81;10288757;28;20146;-78
2022/01/07 03:08:35;;;;;;;15.93;9.50;;;;;;;-4.45;100.00;98758.16;10286242;28;20074;-80
2022/01/07 03:13:37;;;;;;;17.67;10.57;;;;;;;-4.31;100.00;98750.97;10281979;28;20068;-83
2022/01/07 03:18:39;;;;;;;18.08;9.07;;;;;;;-4.54;100.00;98746.34;10285506;28;20054;-81
2022/01/07 03:23:42;;;;;;;19.85;11.35;;;;;;;-4.56;100.00;98737.91;10309388;28;20061;-79
2022/01/07 03:28:45;;;;;;;18.67;10.30;;;;;;;-4.60;100.00;98734.09;10291774;28;20089;-81
2022/01/07 03:34:00;;;;;;;25.60;11.52;;;;;;;-4.58;100.00;98729.44;10278339;28;20286;-80
2022/01/07 03:39:07;;;;;;;22.92;12.23;;;;;;;-4.45;100.00;98718.06;10302963;28;20070;-81
2022/01/07 03:44:14;;;;;;;23.88;12.48;;;;;;;-4.27;100.00;98709.44;10288465;28;20051;-79
2022/01/07 03:49:16;;;;;;;22.90;13.23;;;;;;;-4.13;100.00;98708.28;10290106;28;20035;-80
2022/01/07 03:54:21;;;;;;;26.60;13.07;;;;;;;-4.06;100.00;98711.63;10298507;28;20043;-81
2022/01/07 03:59:30;;;;;;;21.73;11.70;;;;;;;-4.09;100.00;98710.25;10308029;28;20046;-79
2022/01/07 04:05:05;;;;;;;27.50;12.77;;;;;;;-4.08;100.00;98701.38;10267294;28;20042;-80
2022/01/07 04:10:08;;;;;;;28.95;13.45;;;;;;;-4.02;100.00;98697.91;10291558;28;20050;-81
2022/01/07 04:15:10;;;;;;;21.60;11.20;;;;;;;-4.03;100.00;98717.25;10263342;28;20128;-79
2022/01/07 04:20:17;;;;;;;25.55;11.38;;;;;;;-4.06;100.00;98720.31;10296902;28;20059;-78
2022/01/07 04:25:27;;;;;;;21.85;10.70;;;;;;;-4.02;100.00;98705.75;10280370;28;20055;-80
2022/01/07 04:30:34;;;;;;;20.35;10.35;;;;;;;-4.13;100.00;98706.47;10222011;28;20167;-80
2022/01/07 04:35:36;;;;;;;22.02;11.20;;;;;;;-4.18;100.00;98702.91;10250766;28;20092;-79
2022/01/07 04:40:37;;;;;;;21.48;11.90;;;;;;;-4.11;100.00;98714.13;10276904;28;20062;-80
2022/01/07 04:45:40;;;;;;;22.55;11.15;;;;;;;-4.07;100.00;98707.41;10258360;28;20086;-80
2022/01/07 04:50:51;;;;;;;24.13;11.85;;;;;;;-4.06;100.00;98714.25;10245716;28;20043;-78
2022/01/07 04:55:58;;;;;;;22.40;11.35;;;;;;;-3.90;100.00;98718.13;10275134;28;20055;-78
2022/01/07 05:00:59;;;;;;;24.08;10.88;;;;;;;-3.86;100.00;98714.84;10259103;28;20059;-77
2022/01/07 05:06:44;;;;;;;24.52;11.15;;;;;;;-3.78;100.00;98703.25;10291605;28;20094;-82
2022/01/07 05:11:40;;;;;;;24.60;10.93;;;;;;;-3.80;100.00;98695.63;10301793;28;20039;-81
2022/01/07 05:16:47;;;;;;;20.40;10.75;;;;;;;-3.70;100.00;98691.69;10293164;28;20062;-80
2022/01/07 05:21:49;;;;;;;20.98;11.15;;;;;;;-3.64;100.00;98677.69;10297381;28;20062;-80
2022/01/07 05:26:51;;;;;;;19.58;10.88;;;;;;;-3.69;100.00;98675.72;10310677;28;20066;-82
2022/01/07 05:31:54;;;;;;;22.60;11.10;;;;;;;-3.69;100.00;98673.09;10285961;28;20102;-80
2022/01/07 05:37:10;;;;;;;19.30;10.85;;;;;;;-3.66;100.00;98682.34;10263349;28;21571;-82
2022/01/07 05:42:12;;;;;;;22.73;11.35;;;;;;;-3.68;100.00;98676.53;10222849;28;20055;-81
2022/01/07 05:47:19;;;;;;;24.95;10.73;;;;;;;-3.68;100.00;98661.59;10291200;28;20055;-81
2022/01/07 05:52:21;;;;;;;19.40;9.88;;;;;;;-3.66;100.00;98670.03;10292774;28;20062;-81
2022/01/07 05:57:29;;;;;;;20.05;11.52;;;;;;;-3.62;100.00;98676.44;10267748;28;20075;-80
2022/01/07 06:02:37;;;;;;;21.63;10.35;;;;;;;-3.51;100.00;98677.50;10258660;28;20117;-80
2022/01/07 06:07:38;;;;;;;25.08;10.73;;;;;;;-3.45;100.00;98693.19;10268901;28;20058;-79
2022/01/07 06:12:42;;;;;;;18.75;9.60;;;;;;;-3.45;100.00;98695.81;10290097;28;20054;-79
2022/01/07 06:17:43;;;;;;;24.52;11.60;;;;;;;-3.52;100.00;98699.53;10284085;28;20043;-78
2022/01/07 06:22:45;;;;;;;26.05;12.02;;;;;;;-3.40;100.00;98700.38;10262860;28;20058;-78
2022/01/07 06:27:45;;;;;;;24.00;11.57;;;;;;;-3.37;100.00;98686.81;10277600;28;20039;-78
2022/01/07 06:32:46;;;;;;;23.40;12.45;;;;;;;-3.34;100.00;98691.63;10296804;28;20111;-77
2022/01/07 06:37:48;;;;;;;22.83;11.75;;;;;;;-3.37;100.00;98678.94;10299650;28;20063;-81
2022/01/07 06:42:49;;;;;;;25.40;12.63;;;;;;;-3.27;100.00;98686.28;10308475;28;20043;-78
2022/01/07 06:47:49;;;;;;;24.67;12.30;;;;;;;-3.23;100.00;98680.34;10272315;28;20314;-78
2022/01/07 06:52:50;;;;;;;26.83;13.63;;;;;;;-3.23;100.00;98693.47;10272749;28;20093;-77
2022/01/07 06:58:18;;;;;;;26.45;12.70;;;;;;;-3.10;100.00;98705.63;10253299;28;20054;-81
2022/01/07 07:03:40;;;;;;;;;;;;;;;;;;;;;
2022/01/07 07:08:55;;;;;;;26.92;13.98;;;;;;;-2.94;100.00;98702.34;10240792;28;20054;-81
2022/01/07 07:14:08;;;;;;;30.77;14.95;;;;;;;-2.88;100.00;98703.28;10187038;28;20082;-79
2022/01/07 07:19:30;;;;;;;32.60;14.80;;;;;;;-2.80;100.00;98710.84;10278113;28;20067;-81
2022/01/07 07:25:03;;;;;;;31.63;14.30;;;;;;;-2.69;100.00;98712.69;10284075;28;20074;-79
2022/01/07 07:30:11;;;;;;;36.28;15.15;;;;;;;-2.69;100.00;98702.16;10261540;28;20055;-80
2022/01/07 07:40:21;;;;;;;32.38;14.38;;;;;;;-2.47;100.00;98701.59;10282429;28;20139;-78
2022/01/07 07:45:26;;;;;;;34.97;14.73;;;;;;;-2.32;100.00;98697.50;10263568;28;20062;-79
2022/01/07 07:50:28;;;;;;;31.08;15.27;;;;;;;-2.17;100.00;98688.38;10274167;28;20051;-78
2022/01/07 07:55:29;;;;;;;32.55;15.10;;;;;;;-2.19;100.00;98677.28;10264806;28;20103;-79
2022/01/07 08:00:33;;;;;;;30.63;15.27;;;;;;;-2.23;100.00;98682.19;10260656;28;20403;-81
2022/01/07 08:05:35;;;;;;;28.38;13.70;;;;;;;-2.13;100.00;98676.34;10266377;28;20050;-81
2022/01/07 08:10:52;;;;;;;29.90;14.13;;;;;;;-2.12;100.00;98667.41;10293650;28;20406;-81
2022/01/07 08:16:02;;;;;;;34.05;13.52;;;;;;;-2.01;100.00;98666.63;10286154;28;20134;-81
2022/01/07 08:21:24;;;;;;;30.35;15.05;;;;;;;-2.08;100.00;98677.25;10296708;28;20047;-81
2022/01/07 08:26:31;;;;;;;30.33;13.98;;;;;;;-1.90;100.00;98668.44;10327827;28;20031;-83
2022/01/07 08:37:43;;;;;;;27.80;13.02;;;;;;;-1.87;100.00;98644.28;10338943;28;20054;-81
2022/01/07 08:42:46;;;;;;;28.33;13.25;;;;;;;-1.84;100.00;98638.53;10289204;28;20102;-83
2022/01/07 08:48:08;;;;;;;32.40;14.50;;;;;;;-1.84;100.00;98643.81;10303115;28;20039;-84
2022/01/07 08:53:42;;;;;;;30.77;13.30;;;;;;;-1.77;100.00;98636.59;10281040;28;20067;-83
2022/01/07 08:59:09;;;;;;;;;;;;;;;-1.59;100.00;98625.06;10280544;28;20046;-82
2022/01/07 09:04:44;;;;;;;32.95;14.60;;;;;;;-1.60;100.00;98620.06;10279516;28;19961;-79
2022/01/07 09:10:12;;;;;;;30.48;15.20;;;;;;;-1.36;100.00;98629.44;10292310;28;20035;-82
2022/01/07 09:15:36;;;;;;;28.75;13.73;;;;;;;-1.27;100.00;98628.03;10294238;28;20062;-80
2022/01/07 09:20:39;;;;;;;27.23;12.00;;;;;;;-1.26;100.00;98620.94;10298927;28;20031;-83
2022/01/07 09:25:42;;;;;;;26.13;12.73;;;;;;;-1.16;100.00;98614.00;10301714;28;20103;-80
2022/01/07 09:31:39;;;;;;;26.85;12.63;;;;;;;-0.90;100.00;98607.28;10266347;28;20035;-84
2022/01/07 09:37:28;;;;;;;24.65;11.05;;;;;;;-0.87;100.00;98609.44;10269223;28;20043;-83
2022/01/07 09:43:22;;;;;;;24.83;11.35;;;;;;;-0.93;100.00;98597.22;10273747;28;20043;-80
2022/01/07 09:48:59;;;;;;;26.17;11.85;;;;;;;-0.82;100.00;98592.94;10283507;28;20170;-81
2022/01/07 09:54:22;;;;;;;22.50;10.65;;;;;;;-0.93;100.00;98586.69;10252902;28;20142;-82
2022/01/07 09:59:28;;;;;;;24.25;11.55;;;;;;;-0.87;100.00;98574.41;10251305;28;20522;-81
2022/01/07 10:04:41;;;;;;;25.15;12.50;;;;;;;-0.72;100.00;98576.47;10301793;28;20039;-80
2022/01/07 10:10:06;;;;;;;24.70;10.70;;;;;;;-0.65;100.00;98567.31;10263946;28;20053;-82
2022/01/07 10:15:15;;;;;;;21.58;10.35;;;;;;;-0.58;100.00;98556.59;10278977;28;20055;-80
2022/01/07 10:20:45;;;;;;;21.85;10.48;;;;;;;-0.54;100.00;98539.28;10284051;28;20063;-81
2022/01/07 10:26:19;;;;;;;21.35;10.95;;;;;;;-0.43;100.00;98535.72;10245433;28;20146;-82
2022/01/07 10:31:25;;;;;;;24.35;10.20;;;;;;;-0.31;100.00;98530.31;10280575;28;20223;-82
2022/01/07 10:36:38;;;;;;;20.30;10.43;;;;;;;-0.31;100.00;98525.03;10278067;28;20055;-80
2022/01/07 10:42:07;;;;;;;20.40;10.32;;;;;;;-0.24;100.00;98523.03;10293083;28;20047;-79
2022/01/07 10:47:09;;;;;;;20.57;10.53;;;;;;;-0.12;100.00;98517.59;10295858;28;20152;-79
2022/01/07 10:52:36;;;;;;;18.98;10.02;;;;;;;-0.09;100.00;98498.63;10270486;28;20050;-80
2022/01/07 10:57:43;;;;;;;20.20;10.27;;;;;;;-0.15;100.00;98494.38;10293640;28;20490;-81
2022/01/07 11:02:44;;;;;;;23.48;11.35;;;;;;;-0.03;100.00;98487.91;10284046;28;20058;-79
2022/01/07 11:07:51;;;;;;;22.02;11.52;;;;;;;0.11;100.00;98483.03;10273969;28;20051;-79
2022/01/07 11:13:24;;;;;;;20.33;10.02;;;;;;;0.12;100.00;98474.06;10278383;28;20074;-82
2022/01/07 11:18:49;;;;;;;20.27;10.50;;;;;;;0.26;100.00;98464.69;10221756;28;20055;-80
2022/01/07 11:23:50;;;;;;;20.92;10.30;;;;;;;0.16;100.00;98469.88;10327077;28;20058;-79
2022/01/07 11:35:23;;;;;;;21.48;9.50;;;;;;;0.05;100.00;98460.28;10309258;28;20054;-80
2022/01/07 11:40:54;;;;;;;20.52;9.98;;;;;;;0.11;100.00;98461.13;10287389;28;20102;-80
2022/01/07 11:45:55;;;;;;;21.23;10.70;;;;;;;0.07;100.00;98460.81;10297305;28;20051;-80
2022/01/07 11:51:13;;;;;;;18.25;9.27;;;;;;;0.09;100.00;98461.38;10294027;28;20050;-78
2022/01/07 11:56:19;;;;;;;21.83;10.15;;;;;;;0.20;100.00;98449.06;10275961;28;20066;-78
2022/01/07 12:01:45;;;;;;;21.02;9.93;;;;;;;0.28;100.00;98444.13;10288624;28;20059;-79
2022/01/07 12:06:51;;;;;;;17.63;9.73;;;;;;;0.33;100.00;98450.47;10272921;28;20154;-78
2022/01/07 12:11:59;;;;;;;16.95;10.20;;;;;;;0.31;100.00;98437.53;10289393;28;20214;-78
2022/01/07 12:17:02;;;;;;;20.40;11.30;;;;;;;0.21;100.00;98432.19;10289918;28;20110;-78
2022/01/07 12:22:10;;;;;;;20.30;10.63;;;;;;;0.17;100.00;98426.59;10258916;28;20141;-79
2022/01/07 12:27:23;;;;;;;21.33;11.00;;;;;;;0.19;100.00;98429.00;10270886;28;20455;-80
2022/01/07 12:32:38;;;;;;;20.75;11.15;;;;;;;0.17;100.00;98421.31;10283559;28;20058;-79
2022/01/07 12:37:40;;;;;;;21.25;10.68;;;;;;;0.18;100.00;98425.56;10255483;28;20081;-78
2022/01/07 12:42:44;;;;;;;27.55;12.90;;;;;;;0.13;100.00;98432.63;10263463;28;20062;-79
2022/01/07 12:47:45;;;;;;;22.77;12.55;;;;;;;-0.14;100.00;98438.72;10265102;28;20118;-79
2022/01/07 12:52:51;;;;;;;27.45;13.55;;;;;;;-0.30;100.00;98436.97;10264978;28;20061;-80
2022/01/07 12:58:06;;;;;;;31.55;14.02;;;;;;;-0.30;100.00;98436.97;10270352;28;20062;-80
2022/01/07 13:03:11;;;;;;;27.40;13.68;;;;;;;-0.28;100.00;98440.16;10279629;28;20400;-83
2022/01/07 13:08:19;;;;;;;31.55;15.77;;;;;;;-0.53;100.00;98432.00;10283054;28;20079;-78
2022/01/07 13:13:29;;;;;;;31.85;15.20;;;;;;;-0.47;100.00;98429.16;10284788;28;20031;-79
2022/01/07 13:18:43;;;;;;;31.08;13.80;;;;;;;-0.55;100.00;98424.31;10304753;28;20051;-79
2022/01/07 13:23:51;;;;;;;33.17;15.35;;;;;;;-0.59;100.00;98421.38;10276558;28;20515;-77
2022/01/07 13:28:55;;;;;;;34.15;15.40;;;;;;;-0.62;100.00;98415.81;10269866;28;20388;-78
2022/01/07 13:33:55;;;;;;;;;;;;;;;-0.60;100.00;98409.25;10276522;28;20662;-77
2022/01/07 13:39:01;;;;;;;29.17;13.70;;;;;;;-0.63;100.00;98409.75;10237119;28;20008;-79
2022/01/07 13:44:07;;;;;;;32.03;15.00;;;;;;;-0.64;100.00;98408.16;10233791;28;20628;-78
2022/01/07 13:49:11;;;;;;;33.53;15.25;;;;;;;-0.60;100.00;98403.19;10263268;28;20494;-78
2022/01/07 13:54:19;;;;;;;28.33;14.60;;;;;;;-0.57;100.00;98400.03;10251632;28;20055;-78
2022/01/07 13:59:25;;;;;;;36.50;16.55;;;;;;;-0.65;100.00;98397.84;10277909;28;20050;-77
2022/01/07 14:05:11;;;;;;;32.90;16.40;;;;;;;-0.61;100.00;98388.41;10250258;28;20092;-77
2022/01/07 14:10:18;;;;;;;33.50;16.45;;;;;;;-0.59;100.00;98381.84;10200351;28;20069;-77
2022/01/07 14:15:28;;;;;;;36.53;16.55;;;;;;;-0.47;100.00;98376.41;10273314;28;20054;-77
2022/01/07 14:20:40;;;;;;;35.80;16.70;;;;;;;-0.50;100.00;98386.69;10234891;28;20470;-75
2022/01/07 14:25:42;;;;;;;31.73;16.13;;;;;;;-0.50;100.00;98387.47;10235053;28;20066;-77
2022/01/07 14:30:44;;;;;;;31.50;15.27;;;;;;;-0.47;100.00;98381.69;10246302;28;20082;-77
2022/01/07 14:35:46;;;;;;;30.13;15.45;;;;;;;-0.46;100.00;98374.56;10254700;28;20054;-75
2022/01/07 14:40:48;;;;;;;32.50;16.60;;;;;;;-0.46;100.00;98371.94;10255758;28;20063;-76
2022/01/07 14:45:49;;;;;;;40.88;21.58;;;;;;;-0.55;100.00;98370.78;10277021;28;20674;-76
2022/01/07 14:50:51;;;;;;;35.20;17.58;;;;;;;-0.57;100.00;98365.78;10273644;28;20047;-78
2022/01/07 14:55:56;;;;;;;35.22;16.02;;;;;;;-0.62;100.00;98368.38;10247063;28;20071;-76
2022/01/07 15:01:01;;;;;;;36.20;15.90;;;;;;;-0.61;100.00;98367.31;10255723;28;20094;-75
2022/01/07 15:06:01;;;;;;;33.75;15.90;;;;;;;-0.64;100.00;98357.25;10251983;28;20078;-77
2022/01/07 15:11:03;;;;;;;37.00;16.90;;;;;;;-0.66;100.00;98354.09;10253394;28;20066;-76
2022/01/07 15:21:06;;;;;;;36.10;17.10;;;;;;;-0.67;100.00;98363.84;10268509;28;20470;-76
2022/01/07 15:26:07;;;;;;;31.40;15.18;;;;;;;-0.62;100.00;98371.81;10259611;28;20069;-78
2022/01/07 15:31:08;;;;;;;34.30;16.60;;;;;;;-0.64;100.00;98370.44;10285911;28;20122;-76
2022/01/07 15:36:12;;;;;;;34.70;15.15;;;;;;;-0.66;100.00;98385.72;10282899;28;20082;-78
2022/01/07 15:41:16;;;;;;;33.10;15.73;;;;;;;-0.66;100.00;98377.81;10257491;28;20054;-76
2022/01/07 15:46:18;;;;;;;;;;;;;;;-0.69;100.00;98376.47;10272575;28;20597;-76
2022/01/07 15:51:19;;;;;;;36.95;16.15;;;;;;;-0.68;100.00;98366.72;10282682;28;19993;-78
2022/01/07 15:56:21;;;;;;;36.97;16.98;;;;;;;-0.66;100.00;98370.69;10295760;28;20054;-78
2022/01/07 16:01:21;;;;;;;32.70;16.20;;;;;;;-0.68;100.00;98369.34;10285316;28;20141;-75
2022/01/07 16:06:22;;;;;;;33.25;15.80;;;;;;;-0.74;100.00;98365.84;10311168;28;20051;-77
2022/01/07 16:11:24;;;;;;;32.47;16.02;;;;;;;-0.82;100.00;98366.31;10267025;28;20066;-75
2022/01/07 16:16:25;;;;;;;37.75;17.83;;;;;;;-0.75;100.00;98360.84;10285562;28;20050;-77
2022/01/07 16:21:25;;;;;;;42.35;18.38;;;;;;;-0.82;100.00;98352.31;10292263;28;20051;-78
2022/01/07 16:26:26;;;;;;;43.00;18.25;;;;;;;-0.81;100.00;98353.94;10294874;28;20058;-76
2022/01/07 16:31:29;;;;;;;38.67;17.85;;;;;;;-0.77;100.00;98355.03;10279042;28;20035;-77
2022/01/07 16:36:29;;;;;;;43.22;18.48;;;;;;;-0.74;100.00;98359.78;10317506;28;20043;-77
2022/01/07 16:41:30;;;;;;;43.25;18.67;;;;;;;-0.78;100.00;98362.13;10317084;28;20042;-77
2022/01/07 16:46:31;;;;;;;45.63;19.45;;;;;;;-0.85;100.00;98351.00;10271927;28;20061;-77
2022/01/07 16:51:31;;;;;;;41.25;19.45;;;;;;;-0.79;100.00;98360.56;10273712;28;20065;-78
2022/01/07 16:56:32;;;;;;;42.47;19.48;;;;;;;-0.79;100.00;98357.13;10280534;28;20110;-78
2022/01/07 17:01:34;;;;;;;45.38;20.60;;;;;;;-0.80;100.00;98364.22;10256695;28;20522;-76
2022/01/07 17:06:34;;;;;;;52.42;22.77;;;;;;;-0.76;100.00;98349.50;10269147;28;20066;-76
2022/01/07 17:11:35;;;;;;;56.47;24.33;;;;;;;-0.75;100.00;98352.94;10272669;28;20117;-78
2022/01/07 17:16:37;;;;;;;47.70;21.27;;;;;;;-0.74;100.00;98344.78;10263582;28;20054;-75
2022/01/07 17:21:38;;;;;;;45.42;20.90;;;;;;;-0.73;100.00;98337.66;10279336;28;20059;-76
2022/01/07 17:26:39;;;;;;;49.25;21.20;;;;;;;-0.77;100.00;98326.84;10272512;28;20061;-75
2022/01/07 17:31:40;;;;;;;46.65;20.23;;;;;;;-0.71;100.00;98325.06;10266224;28;20057;-76
2022/01/07 17:36:41;;;;;;;50.33;20.88;;;;;;;-0.76;100.00;98336.31;10263912;28;20057;-75
2022/01/07 17:41:41;;;;;;;57.95;23.00;;;;;;;-0.73;100.00;98341.13;10276695;28;20131;-76
2022/01/07 17:46:42;;;;;;;48.63;22.02;;;;;;;-0.76;100.00;98344.22;10272412;28;20063;-79
2022/01/07 17:51:43;;;;;;;45.05;19.75;;;;;;;-0.68;100.00;98346.44;10306100;28;20105;-76
2022/01/07 17:56:43;;;;;;;44.97;22.40;;;;;;;-0.67;100.00;98339.31;10296896;28;20137;-77
2022/01/07 18:01:44;;;;;;;48.30;21.65;;;;;;;-0.64;100.00;98334.38;10289071;28;20103;-76
2022/01/07 18:06:44;;;;;;;40.25;20.48;;;;;;;-0.65;100.00;98318.78;10293766;28;20051;-76
2022/01/07 18:11:46;;;;;;;39.97;19.70;;;;;;;-0.93;100.00;98317.97;10311565;28;20075;-76
2022/01/07 18:16:48;;;;;;;39.45;20.30;;;;;;;-1.03;100.00;98317.84;10306902;28;20043;-76
2022/01/07 18:21:48;;;;;;;39.13;20.33;;;;;;;-0.96;100.00;98312.41;10306051;28;20481;-76
2022/01/07 18:26:51;;;;;;;38.78;19.98;;;;;;;-0.94;100.00;98312.94;10276455;28;20075;-77
2022/01/07 18:31:51;;;;;;;39.00;19.85;;;;;;;-0.94;100.00;98303.22;10271830;28;20573;-77
2022/01/07 18:36:52;;;;;;;41.33;18.98;;;;;;;-0.88;100.00;98304.84;10264980;28;20056;-75
2022/01/07 18:41:52;;;;;;;44.10;21.13;;;;;;;-0.77;100.00;98312.88;10247680;28;20098;-76
2022/01/07 18:46:53;;;;;;;40.70;21.50;;;;;;;-0.78;100.00;98316.53;10264713;28;20054;-76
2022/01/07 18:51:54;;;;;;;46.13;21.65;;;;;;;-0.76;100.00;98325.00;10256267;28;20390;-76
2022/01/07 18:56:54;;;;;;;44.67;21.23;;;;;;;-0.79;100.00;98318.38;10274371;28;20420;-77
2022/01/07 19:01:55;;;;;;;40.75;20.88;;;;;;;-0.73;100.00;98327.13;10273343;28;20172;-76
2022/01/07 19:06:56;;;;;;;44.92;23.20;;;;;;;-0.76;100.00;98330.25;10263585;28;20058;-77
2022/01/07 19:11:57;;;;;;;47.47;24.67;;;;;;;-0.71;100.00;98323.22;10254829;28;20143;-77
2022/01/07 19:16:58;;;;;;;48.42;24.50;;;;;;;-0.63;100.00;98321.97;10254400;28;20458;-76
2022/01/07 19:21:59;;;;;;;38.33;19.92;;;;;;;-0.66;100.00;98319.81;10269848;28;20055;-76
2022/01/07 19:27:00;;;;;;;42.30;21.05;;;;;;;-0.59;100.00;98330.97;10252632;28;20066;-78
2022/01/07 19:32:01;;;;;;;48.05;22.35;;;;;;;-0.59;100.00;98334.41;10264964;28;20063;-77
2022/01/07 19:37:05;;;;;;;38.40;21.75;;;;;;;-0.63;100.00;98329.88;10276952;28;20051;-78
2022/01/07 19:42:06;;;;;;;42.08;20.85;;;;;;;-0.66;100.00;98335.63;10268418;28;20055;-77
2022/01/07 19:47:07;;;;;;;45.33;23.33;;;;;;;-0.64;100.00;98333.53;10278284;28;20058;-77
2022/01/07 19:52:10;;;;;;;45.28;22.70;;;;;;;-0.65;100.00;98329.31;10287654;28;20509;-77
2022/01/07 19:57:10;;;;;;;41.30;21.08;;;;;;;-0.58;100.00;98317.53;10302371;28;20051;-76
2022/01/07 20:02:11;;;;;;;34.50;18.80;;;;;;;-0.61;100.00;98310.13;10302860;28;20137;-77
2022/01/07 20:07:13;;;;;;;41.15;20.27;;;;;;;-0.57;100.00;98320.97;10283422;28;20061;-79
2022/01/07 20:12:14;;;;;;;45.88;22.27;;;;;;;-0.52;100.00;98310.47;10272143;28;20107;-76
2022/01/07 20:17:16;;;;;;;43.78;21.40;;;;;;;-0.52;100.00;98315.75;10268065;28;20098;-77
2022/01/07 20:22:16;;;;;;;44.00;20.80;;;;;;;-0.54;100.00;98317.06;10279885;28;20046;-77
2022/01/07 20:27:17;;;;;;;39.58;20.45;;;;;;;-0.57;100.00;98307.78;10245774;28;20050;-77
2022/01/07 20:32:17;;;;;;;38.15;21.15;;;;;;;-0.61;100.00;98304.06;10258865;28;20057;-77
2022/01/07 20:37:19;;;;;;;41.78;20.58;;;;;;;-0.59;100.00;98294.06;10275380;28;20102;-77
2022/01/07 20:42:21;;;;;;;43.67;20.80;;;;;;;-0.54;100.00;98301.25;10250066;28;20077;-77
2022/01/07 20:47:23;;;;;;;43.20;21.23;;;;;;;-0.49;100.00;98301.28;10265603;28;20093;-76
2022/01/07 20:52:25;;;;;;;37.90;19.83;;;;;;;-0.49;100.00;98288.09;10273877;28;20505;-77
2022/01/07 20:57:27;;;;;;;40.13;20.77;;;;;;;-0.52;100.00;98278.84;10246656;28;20074;-77
2022/01/07 21:02:31;;;;;;;38.10;19.98;;;;;;;-0.50;100.00;98276.75;10242840;28;20058;-77
2022/01/07 21:07:37;;;;;;;36.40;19.10;;;;;;;-0.49;100.00;98267.00;10236266;28;20054;-76
2022/01/07 21:12:38;;;;;;;36.17;18.15;;;;;;;-0.52;100.00;98268.31;10243837;28;20829;-77
2022/01/07 21:17:43;;;;;;;34.78;18.77;;;;;;;-0.52;100.00;98270.94;10254632;28;20462;-78
2022/01/07 21:22:46;;;;;;;38.55;18.70;;;;;;;-0.46;100.00;98266.47;10271598;28;20514;-77
2022/01/07 21:27:47;;;;;;;38.17;18.80;;;;;;;-0.47;100.00;98254.34;10255103;28;20550;-79
2022/01/07 21:32:48;;;;;;;43.35;21.08;;;;;;;-0.49;100.00;98238.00;10255761;28;20394;-80
2022/01/07 21:37:50;;;;;;;38.92;19.80;;;;;;;-0.45;100.00;98229.34;10271119;28;20050;-78
2022/01/07 21:42:56;;;;;;;32.05;18.50;;;;;;;-0.42;100.00;98228.03;10256260;28;20078;-77
2022/01/07 21:47:57;;;;;;;33.60;18.15;;;;;;;-0.41;100.00;98235.69;10270715;28;20120;-77
2022/01/07 21:52:58;;;;;;;39.17;19.48;;;;;;;-0.37;100.00;98246.53;10276927;28;20065;-78
2022/01/07 21:57:59;;;;;;;31.63;17.42;;;;;;;-0.33;100.00;98239.72;10272629;28;20109;-77
2022/01/07 22:03:00;;;;;;;33.25;17.25;;;;;;;-0.27;100.00;98241.34;10256663;28;20138;-77
2022/01/07 22:08:02;;;;;;;31.30;18.05;;;;;;;-0.39;100.00;98233.59;10258937;28;20392;-80
2022/01/07 22:13:03;;;;;;;33.53;19.77;;;;;;;-0.39;100.00;98230.97;10272488;28;20059;-78
2022/01/07 22:18:07;;;;;;;30.90;16.60;;;;;;;-0.34;100.00;98235.50;10275586;28;20114;-78
2022/01/07 22:23:07;;;;;;;35.88;18.00;;;;;;;-0.13;100.00;98233.78;10267039;28;20120;-77
2022/01/07 22:28:08;;;;;;;25.48;15.60;;;;;;;-0.03;100.00;98237.25;10284394;28;20106;-78
2022/01/07 22:33:08;;;;;;;28.48;16.73;;;;;;;-0.17;100.00;98230.06;10285725;28;20117;-78
2022/01/07 22:38:09;;;;;;;23.75;14.30;;;;;;;-0.05;100.00;98231.44;10247263;28;20085;-80
2022/01/07 22:43:11;;;;;;;24.05;13.60;;;;;;;-0.08;100.00;98236.47;10237155;28;20058;-78
2022/01/07 22:48:12;;;;;;;19.17;11.70;;;;;;;-0.13;100.00;98229.28;10284471;28;20054;-78
2022/01/07 22:53:12;;;;;;;23.92;13.88;;;;;;;-0.08;100.00;98221.41;10270737;28;20058;-78
2022/01/07 22:58:13;;;;;;;20.35;12.80;;;;;;;-0.06;100.00;98221.16;10275618;28;20051;-80
2022/01/07 23:03:13;;;;;;;21.70;11.85;;;;;;;-0.06;100.00;98205.34;10254917;28;20137;-77
2022/01/07 23:08:15;;;;;;;17.60;11.23;;;;;;;-0.06;100.00;98198.22;10267602;28;20083;-77
2022/01/07 23:13:15;;;;;;;21.40;12.70;;;;;;;-0.12;100.00;98188.69;10259921;28;20084;-77
2022/01/07 23:18:17;;;;;;;19.38;12.00;;;;;;;-0.12;100.00;98186.03;10279800;28;20075;-77
2022/01/07 23:23:18;;;;;;;17.08;10.77;;;;;;;-0.08;100.00;98194.25;10266079;28;20065;-77